Time;durP1;ratioP1;P1;durP2;ratioP2;P2;SDS_P1;SDS_P2;PMS_P1;PMS_P2;Temp;Humidity;BMP_temperature;BMP_pressure;BME280_temperature;BME280_humidity;BME280_pressure;Samples;Min_cycle;Max_cycle;Signal;HPM_P1;HPM_P2
2023/08/15 00:00:35;;;;;;;;;;;;;;;;;;5115610;27;20522;-82
2023/08/15 00:03:01;;;;;;;;;;;23.50;50.30;;;;;;5115722;28;19923;-82
2023/08/15 00:05:26;;;;;;;;;;;;;;;;;;5116215;28;20458;-82
2023/08/15 00:07:52;;;;;;;;;;;23.30;52.30;;;;;;5115345;27;20412;-82
2023/08/15 00:10:18;;;;;;;;;;;;;;;;;;5115920;28;19953;-81
2023/08/15 00:12:44;;;;;;;;;;;;;;;;;;5116038;28;19903;-81
2023/08/15 00:15:09;;;;;;;;;;;22.80;52.30;;;;;;5115982;28;19957;-81
2023/08/15 00:17:35;;;;;;;;;;;22.80;53.30;;;;;;5115504;28;19903;-82
2023/08/15 00:20:01;;;;;;;;;;;22.70;53.90;;;;;;5116016;28;19930;-81
2023/08/15 00:22:26;;;;;;;;;;;;;;;;;;5117698;27;19908;-81
2023/08/15 00:24:52;;;;;;;;;;;;;;;;;;5123297;27;20002;-82
2023/08/15 00:27:18;;;;;;;;;;;22.50;54.60;;;;;;5098124;28;19957;-82
2023/08/15 00:29:43;;;;;;;;;;;22.40;54.90;;;;;;5116062;28;20014;-82
2023/08/15 00:32:09;;;;;;;;;;;;;;;;;;5116161;28;19919;-82
2023/08/15 00:34:35;;;;;;;;;;;22.10;55.60;;;;;;5115851;28;19927;-82
2023/08/15 00:37:00;;;;;;;;;;;22.10;56.10;;;;;;5097313;28;19903;-82
2023/08/15 00:39:26;;;;;;;;;;;22.10;56.10;;;;;;5116351;28;19960;-82
2023/08/15 00:41:52;;;;;;;;;;;;;;;;;;5115972;28;19908;-82
2023/08/15 00:44:17;;;;;;;;;;;;;;;;;;5115589;28;19950;-83
2023/08/15 00:46:43;;;;;;;;;;;22.10;57.00;;;;;;5094732;28;19904;-81
2023/08/15 00:49:09;;;;;;;;;;;22.10;57.40;;;;;;5113176;28;19948;-82
2023/08/15 00:51:35;;;;;;;;;;;;;;;;;;5094114;27;19912;-82
2023/08/15 00:54:01;;;;;;;;;;;22.10;57.10;;;;;;5101286;28;20341;-82
2023/08/15 00:56:26;;;;;;;;;;;;;;;;;;5110118;28;20413;-82
2023/08/15 00:58:52;;;;;;;;;;;;;;;;;;5112686;28;19960;-81
2023/08/15 01:01:21;;;;;;;;;;;22.10;56.80;;;;;;5112739;28;19911;-82
2023/08/15 01:03:46;;;;;;;;;;;;;;;;;;5112198;28;20385;-82
2023/08/15 01:06:12;;;;;;;;;;;22.30;57.20;;;;;;5099052;28;19915;-82
2023/08/15 01:08:38;;;;;;;;;;;22.20;58.10;;;;;;5112725;27;19908;-82
2023/08/15 01:11:04;;;;;;;;;;;22.10;59.00;;;;;;5111025;28;19911;-82
2023/08/15 01:13:29;;;;;;;;;;;21.90;58.90;;;;;;5111775;28;20422;-83
2023/08/15 01:15:55;;;;;;;;;;;21.80;60.10;;;;;;5112122;28;19908;-82
2023/08/15 01:18:21;;;;;;;;;;;;;;;;;;5111915;28;20154;-81
2023/08/15 01:20:47;;;;;;;;;;;;;;;;;;5097777;28;20311;-82
2023/08/15 01:23:13;;;;;;;;;;;;;;;;;;5111778;28;19961;-82
2023/08/15 01:25:41;;;;;;;;;;;;;;;;;;5111880;28;19904;-82
2023/08/15 01:28:07;;;;;;;;;;;;;;;;;;5112222;28;20297;-82
2023/08/15 01:30:33;;;;;;;;;;;;;;;;;;5111673;28;19923;-81
2023/08/15 01:32:59;;;;;;;;;;;21.20;60.20;;;;;;5111876;28;19904;-82
2023/08/15 01:35:25;;;;;;;;;;;;;;;;;;5111403;28;19904;-82
2023/08/15 01:37:50;;;;;;;;;;;;;;;;;;5111907;28;19908;-82
2023/08/15 01:40:17;;;;;;;;;;;;;;;;;;5111920;28;19914;-82
2023/08/15 01:42:43;;;;;;;;;;;;;;;;;;5111852;28;19915;-82
2023/08/15 01:45:09;;;;;;;;;;;;;;;;;;5111348;28;19912;-82
2023/08/15 01:47:34;;;;;;;;;;;;;;;;;;5112103;28;19904;-82
2023/08/15 01:50:00;;;;;;;;;;;20.90;61.30;;;;;;5127288;27;19910;-82
2023/08/15 01:52:26;;;;;;;;;;;;;;;;;;5110937;28;20034;-82
2023/08/15 01:54:52;;;;;;;;;;;;;;;;;;5111160;28;20278;-82
2023/08/15 01:57:18;;;;;;;;;;;;;;;;;;5110083;28;19914;-81
2023/08/15 01:59:43;;;;;;;;;;;;;;;;;;5111183;28;19904;-82
2023/08/15 02:02:09;;;;;;;;;;;;;;;;;;5111340;28;20330;-82
2023/08/15 02:04:35;;;;;;;;;;;;;;;;;;5088435;28;20247;-82
2023/08/15 02:07:01;;;;;;;;;;;;;;;;;;5104016;28;19953;-82
2023/08/15 02:09:27;;;;;;;;;;;;;;;;;;5092634;28;20362;-82
2023/08/15 02:11:53;;;;;;;;;;;20.70;64.80;;;;;;5109695;28;19919;-82
2023/08/15 02:14:18;;;;;;;;;;;20.60;67.40;;;;;;5110814;28;19907;-82
2023/08/15 02:16:44;;;;;;;;;;;;;;;;;;5092922;28;19931;-82
2023/08/15 02:19:10;;;;;;;;;;;;;;;;;;5110679;28;19915;-82
2023/08/15 02:21:36;;;;;;;;;;;;;;;;;;5120468;27;20029;-82
2023/08/15 02:24:02;;;;;;;;;;;;;;;;;;5110287;28;19919;-82
2023/08/15 02:26:27;;;;;;;;;;;;;;;;;;5110884;28;19943;-82
2023/08/15 02:28:53;;;;;;;;;;;21.10;61.00;;;;;;5110515;28;19903;-81
2023/08/15 02:31:18;;;;;;;;;;;21.20;60.50;;;;;;5110072;28;19923;-81
2023/08/15 02:33:44;;;;;;;;;;;;;;;;;;5110155;28;19907;-81
2023/08/15 02:36:10;;;;;;;;;;;20.80;68.00;;;;;;5103423;28;20334;-81
2023/08/15 02:38:36;;;;;;;;;;;;;;;;;;5109833;28;20414;-81
2023/08/15 02:41:02;;;;;;;;;;;;;;;;;;5110489;28;19965;-82
2023/08/15 02:43:28;;;;;;;;;;;;;;;;;;5109561;28;19962;-81
2023/08/15 02:45:54;;;;;;;;;;;;;;;;;;5109112;28;19936;-81
2023/08/15 02:48:19;;;;;;;;;;;20.70;66.00;;;;;;5110285;28;19907;-81
2023/08/15 02:50:45;;;;;;;;;;;;;;;;;;5109647;28;19947;-81
2023/08/15 02:53:10;;;;;;;;;;;20.50;73.40;;;;;;5109000;28;19910;-81
2023/08/15 02:55:36;;;;;;;;;;;20.20;70.20;;;;;;5109782;28;19907;-81
2023/08/15 02:58:02;;;;;;;;;;;;;;;;;;5109844;27;20365;-81
2023/08/15 03:00:28;;;;;;;;;;;;;;;;;;5111667;27;19907;-81
2023/08/15 03:02:53;;;;;;;;;;;20.20;74.90;;;;;;5109747;28;20393;-80
2023/08/15 03:05:19;;;;;;;;;;;;;;;;;;5109770;28;19985;-81
2023/08/15 03:07:45;;;;;;;;;;;20.20;77.50;;;;;;5114089;27;20391;-81
2023/08/15 03:10:11;;;;;;;;;;;;;;;;;;5114033;27;19907;-82
2023/08/15 03:12:36;;;;;;;;;;;;;;;;;;5091113;28;19915;-81
2023/08/15 03:15:02;;;;;;;;;;;;;;;;;;5109172;28;19945;-81
2023/08/15 03:17:28;;;;;;;;;;;;;;;;;;5109304;28;19908;-81
2023/08/15 03:19:54;;;;;;;;;;;20.10;83.20;;;;;;5109678;28;19908;-81
2023/08/15 03:22:20;;;;;;;;;;;19.60;91.30;;;;;;5109372;28;19907;-82
2023/08/15 03:24:45;;;;;;;;;;;19.10;97.80;;;;;;5109369;28;19908;-81
2023/08/15 03:27:11;;;;;;;;;;;18.90;95.90;;;;;;5109974;28;19908;-81
2023/08/15 03:29:37;;;;;;;;;;;;;;;;;;5108903;28;20026;-81
2023/08/15 03:32:02;;;;;;;;;;;;;;;;;;5110021;28;19915;-81
2023/08/15 03:34:28;;;;;;;;;;;18.70;99.90;;;;;;5109662;28;20418;-81
2023/08/15 03:36:53;;;;;;;;;;;18.40;99.90;;;;;;5108408;28;19904;-81
2023/08/15 03:39:19;;;;;;;;;;;18.50;99.90;;;;;;5109616;28;19912;-80
2023/08/15 03:41:45;;;;;;;;;;;;;;;;;;5109284;28;20116;-80
2023/08/15 03:44:10;;;;;;;;;;;18.60;93.30;;;;;;5107977;28;19903;-81
2023/08/15 03:46:36;;;;;;;;;;;18.50;97.60;;;;;;5109662;28;19916;-81
2023/08/15 03:49:02;;;;;;;;;;;18.50;99.90;;;;;;5109386;28;20006;-81
2023/08/15 03:51:28;;;;;;;;;;;18.30;98.30;;;;;;5109710;28;19922;-81
2023/08/15 03:53:53;;;;;;;;;;;18.20;99.80;;;;;;5108771;28;20427;-80
2023/08/15 03:56:19;;;;;;;;;;;18.30;99.90;;;;;;5091103;28;19908;-81
2023/08/15 03:58:44;;;;;;;;;;;18.40;99.90;;;;;;5109719;28;19904;-80
2023/08/15 04:01:10;;;;;;;;;;;18.50;99.90;;;;;;5091050;28;19904;-81
2023/08/15 04:03:36;;;;;;;;;;;18.50;99.60;;;;;;5108965;28;19910;-81
2023/08/15 04:06:02;;;;;;;;;;;;;;;;;;5091090;28;19919;-82
2023/08/15 04:08:28;;;;;;;;;;;18.40;99.90;;;;;;5108964;28;19904;-82
2023/08/15 04:10:54;;;;;;;;;;;18.30;99.90;;;;;;5109337;28;19915;-82
2023/08/15 04:13:20;;;;;;;;;;;18.30;99.90;;;;;;5090775;28;20366;-81
2023/08/15 04:15:45;;;;;;;;;;;18.20;99.90;;;;;;5109630;28;19915;-81
2023/08/15 04:18:11;;;;;;;;;;;18.20;99.90;;;;;;5109151;28;19935;-81
2023/08/15 04:20:37;;;;;;;;;;;;;;;;;;5109918;28;19908;-81
2023/08/15 04:23:03;;;;;;;;;;;18.30;99.90;;;;;;5112406;28;19904;-81
2023/08/15 04:25:29;;;;;;;;;;;18.20;99.10;;;;;;5113145;28;20323;-81
2023/08/15 04:27:54;;;;;;;;;;;18.30;99.90;;;;;;5112226;28;19911;-80
2023/08/15 04:30:20;;;;;;;;;;;18.50;99.90;;;;;;5099936;27;19931;-81
2023/08/15 04:32:46;;;;;;;;;;;;;;;;;;5114650;27;19908;-81
2023/08/15 04:35:12;;;;;;;;;;;;;;;;;;5112653;28;19914;-81
2023/08/15 04:37:38;;;;;;;;;;;18.60;99.90;;;;;;5111906;28;20516;-81
2023/08/15 04:40:03;;;;;;;;;;;18.70;99.90;;;;;;5112741;28;19904;-81
2023/08/15 04:42:29;;;;;;;;;;;18.70;99.90;;;;;;5112592;28;19947;-81
2023/08/15 04:44:55;;;;;;;;;;;;;;;;;;5110815;28;20002;-81
2023/08/15 04:47:20;;;;;;;;;;;18.80;99.90;;;;;;5111858;28;19907;-81
2023/08/15 04:49:46;;;;;;;;;;;;;;;;;;5112071;28;19916;-80
2023/08/15 04:52:12;;;;;;;;;;;;;;;;;;5112040;28;19919;-81
2023/08/15 04:54:38;;;;;;;;;;;18.70;99.90;;;;;;5104815;28;20341;-81
2023/08/15 04:57:03;;;;;;;;;;;18.60;99.90;;;;;;5099480;28;19951;-81
2023/08/15 04:59:29;;;;;;;;;;;18.50;99.90;;;;;;5112413;28;20459;-81
2023/08/15 05:01:55;;;;;;;;;;;;;;;;;;5112243;28;20512;-80
2023/08/15 05:04:20;;;;;;;;;;;18.60;99.90;;;;;;5112487;28;19915;-81
2023/08/15 05:06:46;;;;;;;;;;;;;;;;;;5111622;28;20279;-80
2023/08/15 05:09:12;;;;;;;;;;;;;;;;;;5116390;27;19912;-81
2023/08/15 05:11:38;;;;;;;;;;;18.70;99.90;;;;;;5113226;27;19941;-81
2023/08/15 05:14:06;;;;;;;;;;;18.80;99.90;;;;;;5112114;28;19912;-81
2023/08/15 05:16:32;;;;;;;;;;;;;;;;;;5111958;28;19930;-81
2023/08/15 05:18:57;;;;;;;;;;;18.90;99.90;;;;;;5111946;28;20381;-80
2023/08/15 05:21:23;;;;;;;;;;;18.90;99.90;;;;;;5111326;28;19904;-81
2023/08/15 05:23:49;;;;;;;;;;;19.00;99.90;;;;;;5111428;28;20297;-81
2023/08/15 05:26:14;;;;;;;;;;;;;;;;;;5111268;28;19915;-81
2023/08/15 05:28:40;;;;;;;;;;;19.10;99.90;;;;;;5111903;28;19958;-81
2023/08/15 05:31:05;;;;;;;;;;;18.90;99.90;;;;;;5111292;28;19923;-81
2023/08/15 05:33:34;;;;;;;;;;;;;;;;;;5110886;28;19927;-81
2023/08/15 05:35:59;;;;;;;;;;;19.20;99.90;;;;;;5111122;28;19912;-81
2023/08/15 05:38:25;;;;;;;;;;;19.30;99.90;;;;;;5111759;28;19910;-81
2023/08/15 05:40:50;;;;;;;;;;;19.30;99.90;;;;;;5107636;28;19915;-81
2023/08/15 05:43:16;;;;;;;;;;;19.40;99.90;;;;;;5087129;28;19908;-81
2023/08/15 05:45:43;;;;;;;;;;;19.50;99.90;;;;;;5110145;28;19908;-81
2023/08/15 05:48:09;;;;;;;;;;;19.50;99.90;;;;;;5111236;28;19910;-80
2023/08/15 05:50:34;;;;;;;;;;;19.50;99.50;;;;;;5110622;28;19907;-80
2023/08/15 05:53:00;;;;;;;;;;;19.40;99.90;;;;;;5111679;28;19903;-80
2023/08/15 05:55:25;;;;;;;;;;;19.30;99.10;;;;;;5108680;28;19915;-80
2023/08/15 05:57:51;;;;;;;;;;;19.10;99.90;;;;;;5100568;28;20397;-81
2023/08/15 06:00:18;;;;;;;;;;;19.00;99.50;;;;;;5109424;28;19958;-81
2023/08/15 06:02:44;;;;;;;;;;;18.90;99.90;;;;;;5111181;28;19903;-82
2023/08/15 06:05:09;;;;;;;;;;;18.80;99.90;;;;;;5110701;28;19953;-80
2023/08/15 06:07:35;;;;;;;;;;;;;;;;;;5111144;28;19939;-80
2023/08/15 06:10:01;;;;;;;;;;;19.10;99.90;;;;;;5110758;28;20103;-81
2023/08/15 06:12:26;;;;;;;;;;;19.20;99.70;;;;;;5110956;28;19915;-81
2023/08/15 06:14:52;;;;;;;;;;;19.20;99.90;;;;;;5110176;28;19907;-80
2023/08/15 06:17:18;;;;;;;;;;;19.30;99.00;;;;;;5110413;28;19903;-80
2023/08/15 06:19:44;;;;;;;;;;;19.30;99.40;;;;;;5110777;28;19982;-81
2023/08/15 06:22:09;;;;;;;;;;;19.40;99.90;;;;;;5110802;28;20413;-81
2023/08/15 06:24:35;;;;;;;;;;;19.60;99.90;;;;;;5110115;28;19907;-80
2023/08/15 06:27:00;;;;;;;;;;;19.70;99.90;;;;;;5110787;28;19912;-80
2023/08/15 06:29:26;;;;;;;;;;;20.00;99.60;;;;;;5108430;28;19923;-82
2023/08/15 06:31:52;;;;;;;;;;;20.10;99.00;;;;;;5105613;27;19923;-81
2023/08/15 06:34:18;;;;;;;;;;;20.40;98.90;;;;;;5082196;28;20352;-81
2023/08/15 06:36:43;;;;;;;;;;;20.70;97.20;;;;;;5100864;28;19953;-82
2023/08/15 06:39:09;;;;;;;;;;;20.90;95.80;;;;;;5091296;28;19922;-81
2023/08/15 06:41:35;;;;;;;;;;;21.10;94.30;;;;;;5093024;28;20398;-81
2023/08/15 06:44:00;;;;;;;;;;;21.40;93.90;;;;;;5108840;28;19959;-81
2023/08/15 06:46:26;;;;;;;;;;;22.00;93.60;;;;;;5108765;28;20448;-82
2023/08/15 06:48:51;;;;;;;;;;;22.70;90.70;;;;;;5098373;28;19919;-81
2023/08/15 06:51:17;;;;;;;;;;;23.40;87.10;;;;;;5097064;28;19923;-81
2023/08/15 06:53:44;;;;;;;;;;;23.90;83.60;;;;;;5097766;28;20339;-81
2023/08/15 06:56:10;;;;;;;;;;;24.50;79.50;;;;;;5103316;28;19903;-81
2023/08/15 06:58:35;;;;;;;;;;;25.00;75.60;;;;;;5104900;28;19908;-82
2023/08/15 07:01:01;;;;;;;;;;;25.80;73.70;;;;;;5102816;27;19911;-81
2023/08/15 07:03:26;;;;;;;;;;;26.60;70.60;;;;;;5109712;28;19908;-81
2023/08/15 07:05:52;;;;;;;;;;;27.70;65.20;;;;;;5100341;28;19965;-81
2023/08/15 07:08:17;;;;;;;;;;;28.80;65.60;;;;;;5103356;27;19939;-81
2023/08/15 07:10:43;;;;;;;;;;;28.90;63.90;;;;;;5107643;27;19912;-80
2023/08/15 07:13:09;;;;;;;;;;;28.00;62.10;;;;;;5102325;28;19915;-81
2023/08/15 07:15:34;;;;;;;;;;;26.60;64.90;;;;;;5103482;28;19949;-81
2023/08/15 07:18:00;;;;;;;;;;;25.60;68.40;;;;;;5098814;28;19912;-81
2023/08/15 07:20:26;;;;;;;;;;;24.90;71.60;;;;;;5110080;28;19946;-81
2023/08/15 07:22:51;;;;;;;;;;;24.30;75.10;;;;;;5109422;28;20212;-81
2023/08/15 07:25:17;;;;;;;;;;;24.00;77.60;;;;;;5110300;28;20045;-81
2023/08/15 07:27:42;;;;;;;;;;;23.60;79.60;;;;;;5105045;28;19911;-81
2023/08/15 07:30:11;;;;;;;;;;;23.30;80.60;;;;;;5104927;28;19916;-81
2023/08/15 07:32:36;;;;;;;;;;;23.00;82.60;;;;;;5107530;28;20010;-81
2023/08/15 07:35:03;;;;;;;;;;;22.80;82.80;;;;;;5098437;28;19908;-81
2023/08/15 07:37:29;;;;;;;;;;;22.70;85.30;;;;;;5100581;28;19908;-81
2023/08/15 07:40:00;;;;;;;;;;;22.70;87.50;;;;;;5100760;28;19912;-80
2023/08/15 07:42:26;;;;;;;;;;;22.70;88.60;;;;;;5099509;28;19907;-81
2023/08/15 07:44:52;;;;;;;;;;;22.50;90.00;;;;;;5095876;28;20336;-81
2023/08/15 07:47:17;;;;;;;;;;;22.30;89.50;;;;;;5099117;28;19915;-81
2023/08/15 07:49:43;;;;;;;;;;;22.50;91.40;;;;;;5109519;28;20569;-81
2023/08/15 07:52:09;;;;;;;;;;;22.60;88.90;;;;;;5109037;28;20377;-81
2023/08/15 07:54:35;;;;;;;;;;;22.90;89.80;;;;;;5100657;28;19961;-81
2023/08/15 07:57:00;;;;;;;;;;;23.20;87.40;;;;;;5110941;28;19910;-81
2023/08/15 07:59:26;;;;;;;;;;;23.60;85.30;;;;;;5105191;28;19978;-81
2023/08/15 08:01:51;;;;;;;;;;;24.10;79.20;;;;;;5113520;28;20006;-81
2023/08/15 08:04:19;;;;;;;;;;;26.20;74.20;;;;;;5110497;28;19907;-81
2023/08/15 08:06:44;;;;;;;;;;;29.50;62.40;;;;;;5111966;28;19915;-83
2023/08/15 08:09:10;;;;;;;;;;;31.20;54.70;;;;;;5112859;28;20672;-84
2023/08/15 08:11:36;;;;;;;;;;;31.70;53.40;;;;;;5111543;28;19962;-83
2023/08/15 08:14:03;;;;;;;;;;;34.70;52.10;;;;;;5114253;28;20025;-83
2023/08/15 08:16:29;;;;;;;;;;;36.60;48.70;;;;;;5110168;28;19918;-84
2023/08/15 08:18:54;;;;;;;;;;;37.50;44.50;;;;;;5097922;28;20005;-84
2023/08/15 08:21:20;;;;;;;;;;;39.30;43.10;;;;;;5116592;28;20636;-85
2023/08/15 08:23:45;;;;;;;;;;;41.10;42.70;;;;;;5111044;27;19935;-85
2023/08/15 08:26:11;;;;;;;;;;;40.10;41.70;;;;;;5117568;27;20465;-84
2023/08/15 08:28:36;;;;;;;;;;;35.60;47.70;;;;;;5115185;28;19911;-85
2023/08/15 08:31:03;;;;;;;;;;;33.10;50.70;;;;;;5116615;28;19916;-84
2023/08/15 08:33:28;;;;;;;;;;;30.90;53.70;;;;;;5087258;28;20314;-83
2023/08/15 08:35:54;;;;;;;;;;;29.10;56.60;;;;;;5117224;27;19908;-85
2023/08/15 08:38:20;;;;;;;;;;;28.00;58.90;;;;;;5092724;27;20437;-84
2023/08/15 08:40:47;;;;;;;;;;;27.00;61.70;;;;;;5114724;28;19911;-83
2023/08/15 08:43:13;;;;;;;;;;;26.20;64.00;;;;;;5116271;28;19912;-83
2023/08/15 08:45:40;;;;;;;;;;;25.60;67.60;;;;;;5118937;28;20469;-84
2023/08/15 08:48:08;;;;;;;;;;;25.00;69.30;;;;;;5108421;27;19965;-84
2023/08/15 08:50:34;;;;;;;;;;;24.40;71.10;;;;;;5116926;28;19910;-84
2023/08/15 08:52:59;;;;;;;;;;;;;;;;;;5113305;27;19994;-83
2023/08/15 08:55:26;;;;;;;;;;;23.40;77.60;;;;;;5126512;27;19907;-84
2023/08/15 08:57:52;;;;;;;;;;;;;;;;;;5103209;28;20439;-81
2023/08/15 09:00:21;;;;;;;;;;;23.00;82.30;;;;;;5106534;28;19908;-79
2023/08/15 09:02:46;;;;;;;;;;;22.80;92.00;;;;;;5093637;28;19908;-81
2023/08/15 09:05:12;;;;;;;;;;;;;;;;;;5112285;28;19908;-80
2023/08/15 09:07:38;;;;;;;;;;;22.30;93.70;;;;;;5111014;28;19910;-81
2023/08/15 09:10:05;;;;;;;;;;;22.10;94.80;;;;;;5111764;28;19904;-81
2023/08/15 09:12:38;;;;;;;;;;;22.20;91.70;;;;;;5108924;27;19915;-80
2023/08/15 09:15:04;;;;;;;;;;;;;;;;;;5102526;28;19915;-81
2023/08/15 09:17:30;;;;;;;;;;;;;;;;;;5083483;28;19911;-80
2023/08/15 09:19:56;;;;;;;;;;;22.60;90.80;;;;;;5100267;28;19953;-80
2023/08/15 09:22:22;;;;;;;;;;;22.70;85.60;;;;;;5103561;28;19939;-79
2023/08/15 09:24:48;;;;;;;;;;;;;;;;;;5099584;28;19912;-80
2023/08/15 09:27:13;;;;;;;;;;;23.30;77.10;;;;;;5103434;28;19908;-79
2023/08/15 09:29:39;;;;;;;;;;;24.10;76.90;;;;;;5107422;28;20350;-80
2023/08/15 09:34:41;;;;;;;4.13;1.42;;;;;;;;;;5134414;27;20124;-82
2023/08/15 09:37:08;;;;;;;4.63;1.23;;;36.00;51.20;;;;;;5115644;28;20504;-83
2023/08/15 09:39:34;;;;;;;1.60;1.10;;;;;;;;;;5036776;27;20043;-82
2023/08/15 09:42:00;;;;;;;2.80;1.20;;;41.70;46.60;;;;;;5032895;28;20022;-84
2023/08/15 09:44:30;;;;;;;2.43;0.70;;;39.30;39.90;;;;;;5030417;28;20025;-83
2023/08/15 09:46:56;;;;;;;1.13;0.77;;;;;;;;;;5028651;28;20025;-83
2023/08/15 09:49:23;;;;;;;2.55;0.73;;;;;;;;;;5029855;28;20112;-84
2023/08/15 09:51:49;;;;;;;1.63;0.77;;;;;;;;;;5060282;28;20041;-84
2023/08/15 09:54:16;;;;;;;2.55;0.90;;;36.80;42.90;;;;;;5024693;28;20033;-86
2023/08/15 09:56:42;;;;;;;2.35;0.60;;;;;;;;;;5035588;28;20140;-88
2023/08/15 09:59:08;;;;;;;1.65;0.90;;;;;;;;;;5045216;28;20048;-87
2023/08/15 10:01:37;;;;;;;2.17;1.25;;;32.10;46.40;;;;;;5036941;28;20052;-88
2023/08/15 10:04:10;;;;;;;0.85;0.68;;;30.80;48.70;;;;;;5026895;28;20026;-87
2023/08/15 10:06:36;;;;;;;1.25;0.90;;;;;;;;;;5029143;28;20108;-88
2023/08/15 10:09:03;;;;;;;1.75;0.98;;;;;;;;;;5036350;28;20040;-88
2023/08/15 10:11:35;;;;;;;1.73;0.98;;;29.50;51.10;;;;;;5043874;28;20491;-87
2023/08/15 10:14:02;;;;;;;2.03;1.33;;;;;;;;;;5033439;28;20478;-87
2023/08/15 10:16:29;;;;;;;1.48;0.93;;;;;;;;;;5059591;28;20061;-86
2023/08/15 10:18:57;;;;;;;5.90;0.90;;;47.20;32.80;;;;;;5041993;28;20029;-87
2023/08/15 10:21:23;;;;;;;6.07;1.40;;;;;;;;;;5031734;28;20559;-87
2023/08/15 10:23:52;;;;;;;1.38;0.73;;;53.10;28.90;;;;;;5034961;28;20121;-87
2023/08/15 10:26:18;;;;;;;1.65;0.90;;;;;;;;;;5032418;28;20553;-87
2023/08/15 10:28:46;;;;;;;1.42;0.52;;;55.60;26.80;;;;;;5067673;28;20125;-89
2023/08/15 10:31:12;;;;;;;1.45;0.95;;;;;;;;;;5045187;28;20616;-88
2023/08/15 10:33:38;;;;;;;1.30;0.73;;;;;;;;;;5045325;28;20139;-89
2023/08/15 10:36:04;;;;;;;1.10;0.57;;;;;;;;;;5041764;28;20022;-87
2023/08/15 10:38:43;;;;;;;1.77;1.15;;;57.00;25.20;;;;;;5040982;28;20074;-88
2023/08/15 10:41:17;;;;;;;3.17;0.88;;;57.50;26.00;;;;;;5039475;28;20546;-88
2023/08/15 10:43:54;;;;;;;4.30;0.70;;;57.30;26.50;;;;;;5029585;28;20080;-90
2023/08/15 10:46:28;;;;;;;2.58;0.93;;;56.40;23.70;;;;;;5003365;28;20065;-88
2023/08/15 10:48:58;;;;;;;1.87;0.70;;;57.10;23.80;;;;;;5018041;28;20113;-89
2023/08/15 10:51:26;;;;;;;2.72;0.70;;;56.90;23.20;;;;;;5006166;28;20300;-89
2023/08/15 10:54:02;;;;;;;0.70;0.50;;;56.90;23.10;;;;;;5014362;28;20099;-89
2023/08/15 10:56:30;;;;;;;1.80;1.13;;;56.30;23.00;;;;;;5004592;28;20065;-90
2023/08/15 10:58:56;;;;;;;2.42;0.90;;;;;;;;;;5015235;28;20033;-90
2023/08/15 11:01:28;;;;;;;2.85;0.90;;;57.10;22.70;;;;;;5008031;28;20413;-89
2023/08/15 11:03:55;;;;;;;1.20;0.98;;;56.30;22.10;;;;;;5013595;28;20494;-91
2023/08/15 11:06:21;;;;;;;1.55;0.85;;;;;;;;;;5013709;28;20060;-90
2023/08/15 11:08:49;;;;;;;6.18;1.10;;;56.50;22.70;;;;;;5005288;28;20120;-89
2023/08/15 11:11:19;;;;;;;2.67;0.68;;;;;;;;;;5008108;28;20033;-87
2023/08/15 11:13:50;;;;;;;5.43;0.88;;;56.70;22.30;;;;;;5019955;28;20042;-88
2023/08/15 11:16:18;;;;;;;1.80;0.77;;;56.10;26.00;;;;;;5013619;28;20407;-89
2023/08/15 11:18:45;;;;;;;1.20;0.70;;;;;;;;;;5006011;28;20040;-88
2023/08/15 11:21:12;;;;;;;4.20;1.55;;;55.50;22.10;;;;;;5013516;28;20053;-88
2023/08/15 11:23:39;;;;;;;10.27;6.60;;;55.40;22.10;;;;;;5011466;28;20100;-89
2023/08/15 11:26:07;;;;;;;2.42;1.80;;;56.00;22.20;;;;;;5018558;28;20013;-88
2023/08/15 11:28:33;;;;;;;5.57;0.90;;;56.70;22.40;;;;;;5016417;28;20038;-87
2023/08/15 11:31:00;;;;;;;0.90;0.65;;;;;;;;;;5018192;28;20103;-87
2023/08/15 11:33:29;;;;;;;1.08;0.50;;;55.80;22.00;;;;;;5044743;28;20511;-89
2023/08/15 11:35:56;;;;;;;1.13;0.60;;;;;;;;;;5015625;28;20025;-89
2023/08/15 11:38:22;;;;;;;0.60;0.57;;;;;;;;;;5012471;28;20522;-90
2023/08/15 11:40:48;;;;;;;1.20;0.57;;;;;;;;;;5012384;28;20093;-91
2023/08/15 11:43:14;;;;;;;2.40;1.10;;;;;;;;;;5013362;28;20049;-90
2023/08/15 11:45:43;;;;;;;3.65;0.50;;;53.10;22.30;;;;;;5016025;28;20426;-89
2023/08/15 11:48:09;;;;;;;2.03;0.80;;;;;;;;;;5025227;28;20036;-92
2023/08/15 11:50:35;;;;;;;1.80;0.80;;;;;;;;;;5016279;28;20030;-90
2023/08/15 11:53:12;;;;;;;1.33;0.95;;;52.00;23.10;;;;;;5045529;28;20030;-90
2023/08/15 11:55:39;;;;;;;1.70;0.63;;;50.70;23.20;;;;;;5031324;28;20080;-89
2023/08/15 11:58:31;;;;;;;1.30;0.60;;;49.60;23.70;;;;;;5019285;28;20061;-89
2023/08/15 12:01:05;;;;;;;2.72;0.70;;;47.40;24.20;;;;;;5013201;28;20197;-90
2023/08/15 12:03:31;;;;;;;0.90;0.68;;;;;;;;;;5020257;28;20292;-90
2023/08/15 12:05:58;;;;;;;1.92;1.20;;;45.00;25.50;;;;;;5022893;28;20030;-89
2023/08/15 12:08:28;;;;;;;1.95;0.80;;;43.30;26.10;;;;;;5022669;28;20064;-90
2023/08/15 12:10:56;;;;;;;6.07;0.55;;;42.20;26.70;;;;;;5021076;28;20072;-89
2023/08/15 12:13:48;;;;;;;1.92;0.60;;;41.20;27.70;;;;;;5029422;28;20042;-91
2023/08/15 12:16:14;;;;;;;1.85;0.60;;;;;;;;;;5016528;28;20521;-90
2023/08/15 12:18:40;;;;;;;1.00;0.55;;;;;;;;;;5021218;28;20025;-90
2023/08/15 12:21:11;;;;;;;2.28;1.00;;;;;;;;;;5030288;28;20033;-88
2023/08/15 12:23:37;;;;;;;5.93;0.98;;;;;;;;;;5022584;28;20049;-89
2023/08/15 12:26:03;;;;;;;3.50;0.98;;;;;;;;;;5047452;28;20041;-90
2023/08/15 12:28:29;;;;;;;1.70;1.00;;;;;;;;;;5022706;28;20606;-89
2023/08/15 12:30:55;;;;;;;2.75;0.82;;;;;;;;;;5015296;28;20029;-90
2023/08/15 12:33:21;;;;;;;0.77;0.57;;;;;;;;;;5031715;28;20057;-89
2023/08/15 12:35:47;;;;;;;1.55;0.65;;;;;;;;;;5024949;28;20040;-89
2023/08/15 12:38:13;;;;;;;2.08;1.35;;;;;;;;;;5043326;28;20045;-88
2023/08/15 12:40:41;;;;;;;1.65;0.80;;;;;;;;;;5012839;28;20026;-91
2023/08/15 12:43:07;;;;;;;1.30;0.82;;;;;;;;;;5011935;28;20033;-90
2023/08/15 12:45:33;;;;;;;1.83;1.15;;;;;;;;;;5013324;28;20049;-87
2023/08/15 12:47:59;;;;;;;2.83;0.98;;;;;;;;;;5012450;28;20028;-89
2023/08/15 12:50:25;;;;;;;3.45;0.90;;;;;;;;;;5015214;28;20048;-90
2023/08/15 12:52:51;;;;;;;2.90;0.90;;;;;;;;;;5033257;28;20065;-89
2023/08/15 12:55:17;;;;;;;2.05;0.77;;;;;;;;;;5028527;28;20427;-89
2023/08/15 12:57:43;;;;;;;1.35;0.75;;;;;;;;;;5021441;28;20029;-88
2023/08/15 13:00:09;;;;;;;0.68;0.65;;;35.40;48.30;;;;;;5014918;28;20533;-88
2023/08/15 13:02:35;;;;;;;2.00;0.77;;;35.10;36.90;;;;;;5010494;28;20030;-89
2023/08/15 13:05:04;;;;;;;3.75;0.90;;;;;;;;;;5010551;28;20022;-88
2023/08/15 13:07:30;;;;;;;1.40;0.70;;;;;;;;;;5011757;28;20041;-88
2023/08/15 13:09:56;;;;;;;1.27;0.77;;;;;;;;;;5011098;28;20029;-86
2023/08/15 13:12:22;;;;;;;1.93;0.63;;;;;;;;;;5011752;28;20033;-88
2023/08/15 13:14:49;;;;;;;4.05;1.25;;;;;;;;;;5011436;28;20273;-89
2023/08/15 13:17:15;;;;;;;2.28;0.90;;;;;;;;;;5011341;28;20029;-88
2023/08/15 13:19:41;;;;;;;3.60;0.90;;;;;;;;;;5011483;28;20437;-88
2023/08/15 13:22:07;;;;;;;;;;;34.90;36.50;;;;;;5010667;28;20269;-88
2023/08/15 13:24:33;;;;;;;2.00;1.07;;;;;;;;;;5011878;28;20416;-88
2023/08/15 13:26:59;;;;;;;1.20;0.77;;;;;;;;;;5011708;28;20022;-91
2023/08/15 13:29:25;;;;;;;1.90;0.98;;;;;;;;;;5012184;28;20018;-88
2023/08/15 13:31:51;;;;;;;3.03;0.98;;;;;;;;;;5011565;28;20085;-89
2023/08/15 13:34:17;;;;;;;1.63;1.13;;;;;;;;;;5011135;28;20589;-88
2023/08/15 13:36:43;;;;;;;1.42;0.90;;;34.00;38.90;;;;;;5011722;28;20291;-89
2023/08/15 13:39:10;;;;;;;2.13;0.90;;;;;;;;;;5011907;28;20025;-88
2023/08/15 13:41:36;;;;;;;1.48;0.93;;;;;;;;;;5011077;28;20033;-88
2023/08/15 13:44:03;;;;;;;3.20;1.00;;;;;;;;;;5012013;28;20026;-89
2023/08/15 13:46:29;;;;;;;1.60;0.93;;;;;;;;;;5011379;28;20033;-87
2023/08/15 13:48:55;;;;;;;2.05;0.70;;;;;;;;;;5011356;28;20056;-87
2023/08/15 13:51:21;;;;;;;1.73;0.90;;;;;;;;;;5043173;28;20553;-87
2023/08/15 13:53:48;;;;;;;4.05;0.98;;;33.60;40.00;;;;;;5014930;28;20116;-87
2023/08/15 13:56:14;;;;;;;5.07;1.40;;;;;;;;;;5028196;28;20040;-87
2023/08/15 13:58:40;;;;;;;1.98;1.15;;;;;;;;;;5029296;28;20021;-87
2023/08/15 14:01:06;;;;;;;1.88;0.95;;;;;;;;;;5024309;28;20026;-88
2023/08/15 14:03:32;;;;;;;3.10;1.25;;;;;;;;;;5021723;28;20407;-88
2023/08/15 14:05:58;;;;;;;3.38;0.95;;;;;;;;;;5023032;28;20033;-83
2023/08/15 14:08:25;;;;;;;3.05;1.05;;;;;;;;;;5019649;28;20038;-85
2023/08/15 14:10:51;;;;;;;2.30;0.82;;;;;;;;;;5015617;28;20038;-87
2023/08/15 14:13:17;;;;;;;2.33;1.17;;;;;;;;;;5037097;28;20038;-87
2023/08/15 14:15:43;;;;;;;1.43;1.10;;;;;;;;;;5007694;28;20291;-88
2023/08/15 14:18:09;;;;;;;3.10;1.13;;;;;;;;;;5020053;28;20522;-86
2023/08/15 14:20:36;;;;;;;3.90;1.10;;;33.10;40.50;;;;;;5015652;28;20284;-84
2023/08/15 14:23:03;;;;;;;2.17;1.10;;;33.10;40.50;;;;;;5002207;28;20061;-83
2023/08/15 14:25:29;;;;;;;3.38;1.20;;;;;;;;;;5007684;28;20072;-84
2023/08/15 14:27:55;;;;;;;1.67;1.08;;;;;;;;;;5012993;28;20026;-84
2023/08/15 14:30:21;;;;;;;1.63;1.20;;;;;;;;;;5008741;28;20045;-85
2023/08/15 14:32:47;;;;;;;1.97;1.07;;;;;;;;;;5050908;28;20068;-86